sensor_id;sensor_type;location;lat;lon;timestamp;temperature;humidity
14517;DHT22;7344;50.864;4.362;2023-06-24T00:00:02;19.80;18.00
14517;DHT22;7344;50.864;4.362;2023-06-24T00:02:32;19.70;15.10
14517;DHT22;7344;50.864;4.362;2023-06-24T00:04:59;19.70;10.70
14517;DHT22;7344;50.864;4.362;2023-06-24T00:07:25;19.60;9.70
14517;DHT22;7344;50.864;4.362;2023-06-24T00:09:52;19.60;3.20
14517;DHT22;7344;50.864;4.362;2023-06-24T00:12:17;19.60;6.30
14517;DHT22;7344;50.864;4.362;2023-06-24T00:14:44;19.60;7.10
14517;DHT22;7344;50.864;4.362;2023-06-24T00:17:10;19.50;3.30
14517;DHT22;7344;50.864;4.362;2023-06-24T00:19:36;19.40;6.50
14517;DHT22;7344;50.864;4.362;2023-06-24T00:22:03;19.40;5.00
14517;DHT22;7344;50.864;4.362;2023-06-24T00:24:29;19.30;3.60
14517;DHT22;7344;50.864;4.362;2023-06-24T00:26:56;19.20;4.50
14517;DHT22;7344;50.864;4.362;2023-06-24T00:29:21;19.20;5.80
14517;DHT22;7344;50.864;4.362;2023-06-24T00:31:47;19.20;6.30
14517;DHT22;7344;50.864;4.362;2023-06-24T00:34:13;19.20;1.00
14517;DHT22;7344;50.864;4.362;2023-06-24T00:36:39;19.10;1.00
14517;DHT22;7344;50.864;4.362;2023-06-24T00:39:05;19.10;1.00
14517;DHT22;7344;50.864;4.362;2023-06-24T00:41:31;19.10;1.00
14517;DHT22;7344;50.864;4.362;2023-06-24T00:43:58;19.10;1.00
14517;DHT22;7344;50.864;4.362;2023-06-24T00:46:24;19.10;1.00
14517;DHT22;7344;50.864;4.362;2023-06-24T00:48:55;19.10;1.00
14517;DHT22;7344;50.864;4.362;2023-06-24T00:51:21;19.00;1.00
14517;DHT22;7344;50.864;4.362;2023-06-24T00:53:54;18.90;1.00
14517;DHT22;7344;50.864;4.362;2023-06-24T00:56:23;18.90;1.20
14517;DHT22;7344;50.864;4.362;2023-06-24T00:58:50;18.90;2.00
14517;DHT22;7344;50.864;4.362;2023-06-24T01:01:17;18.90;3.50
14517;DHT22;7344;50.864;4.362;2023-06-24T01:03:43;18.80;5.30
14517;DHT22;7344;50.864;4.362;2023-06-24T01:06:09;18.80;7.70
14517;DHT22;7344;50.864;4.362;2023-06-24T01:08:35;18.70;11.30
14517;DHT22;7344;50.864;4.362;2023-06-24T01:11:01;18.70;14.90
14517;DHT22;7344;50.864;4.362;2023-06-24T01:13:26;18.70;17.10
14517;DHT22;7344;50.864;4.362;2023-06-24T01:15:52;18.60;18.10
14517;DHT22;7344;50.864;4.362;2023-06-24T01:18:35;18.60;19.20
14517;DHT22;7344;50.864;4.362;2023-06-24T01:21:10;18.50;21.10
14517;DHT22;7344;50.864;4.362;2023-06-24T01:27:09;18.50;31.90
14517;DHT22;7344;50.864;4.362;2023-06-24T01:32:26;18.50;42.50
14517;DHT22;7344;50.864;4.362;2023-06-24T01:35:22;18.50;46.50
14517;DHT22;7344;50.864;4.362;2023-06-24T01:37:51;18.40;50.60
14517;DHT22;7344;50.864;4.362;2023-06-24T01:40:38;18.40;54.70
14517;DHT22;7344;50.864;4.362;2023-06-24T01:43:06;18.30;55.40
14517;DHT22;7344;50.864;4.362;2023-06-24T01:45:37;18.20;54.50
14517;DHT22;7344;50.864;4.362;2023-06-24T01:48:19;18.20;54.30
14517;DHT22;7344;50.864;4.362;2023-06-24T01:51:10;18.20;57.60
14517;DHT22;7344;50.864;4.362;2023-06-24T01:53:42;18.10;54.50
14517;DHT22;7344;50.864;4.362;2023-06-24T01:56:11;18.10;59.20
14517;DHT22;7344;50.864;4.362;2023-06-24T01:58:39;18.10;62.90
14517;DHT22;7344;50.864;4.362;2023-06-24T02:01:07;18.10;60.80
14517;DHT22;7344;50.864;4.362;2023-06-24T02:03:33;18.00;62.50
14517;DHT22;7344;50.864;4.362;2023-06-24T02:05:59;17.90;63.00
14517;DHT22;7344;50.864;4.362;2023-06-24T02:08:29;17.90;63.40
14517;DHT22;7344;50.864;4.362;2023-06-24T02:10:57;17.90;64.40
14517;DHT22;7344;50.864;4.362;2023-06-24T02:13:24;17.80;70.10
14517;DHT22;7344;50.864;4.362;2023-06-24T02:15:51;17.80;76.40
14517;DHT22;7344;50.864;4.362;2023-06-24T02:18:17;17.80;74.70
14517;DHT22;7344;50.864;4.362;2023-06-24T02:20:46;17.80;76.60
14517;DHT22;7344;50.864;4.362;2023-06-24T02:23:13;17.80;83.90
14517;DHT22;7344;50.864;4.362;2023-06-24T02:25:40;17.70;86.30
14517;DHT22;7344;50.864;4.362;2023-06-24T02:28:06;17.60;89.50
14517;DHT22;7344;50.864;4.362;2023-06-24T02:30:37;17.60;90.00
14517;DHT22;7344;50.864;4.362;2023-06-24T02:33:03;17.60;90.30
14517;DHT22;7344;50.864;4.362;2023-06-24T02:35:29;17.60;92.30
14517;DHT22;7344;50.864;4.362;2023-06-24T02:37:55;17.60;92.80
14517;DHT22;7344;50.864;4.362;2023-06-24T02:40:20;17.60;93.30
14517;DHT22;7344;50.864;4.362;2023-06-24T02:42:46;17.50;94.40
14517;DHT22;7344;50.864;4.362;2023-06-24T02:45:13;17.50;93.60
14517;DHT22;7344;50.864;4.362;2023-06-24T02:47:43;17.40;91.30
14517;DHT22;7344;50.864;4.362;2023-06-24T02:50:11;17.40;86.60
14517;DHT22;7344;50.864;4.362;2023-06-24T02:52:38;17.40;90.00
14517;DHT22;7344;50.864;4.362;2023-06-24T02:55:05;17.40;78.60
14517;DHT22;7344;50.864;4.362;2023-06-24T02:57:31;17.30;76.00
14517;DHT22;7344;50.864;4.362;2023-06-24T02:59:57;17.30;80.30
14517;DHT22;7344;50.864;4.362;2023-06-24T03:02:23;17.30;80.80
14517;DHT22;7344;50.864;4.362;2023-06-24T03:04:50;17.30;85.40
14517;DHT22;7344;50.864;4.362;2023-06-24T03:07:17;17.30;87.20
14517;DHT22;7344;50.864;4.362;2023-06-24T03:09:47;17.30;84.40
14517;DHT22;7344;50.864;4.362;2023-06-24T03:12:13;17.30;88.60
14517;DHT22;7344;50.864;4.362;2023-06-24T03:14:38;17.20;92.50
14517;DHT22;7344;50.864;4.362;2023-06-24T03:17:04;17.20;91.40
14517;DHT22;7344;50.864;4.362;2023-06-24T03:19:30;17.20;88.40
14517;DHT22;7344;50.864;4.362;2023-06-24T03:21:55;17.20;87.70
14517;DHT22;7344;50.864;4.362;2023-06-24T03:24:21;17.10;87.30
14517;DHT22;7344;50.864;4.362;2023-06-24T03:26:46;17.10;91.00
14517;DHT22;7344;50.864;4.362;2023-06-24T03:29:12;17.10;93.60
14517;DHT22;7344;50.864;4.362;2023-06-24T03:31:38;17.10;95.10
14517;DHT22;7344;50.864;4.362;2023-06-24T03:34:09;17.10;95.70
14517;DHT22;7344;50.864;4.362;2023-06-24T03:36:35;17.00;94.30
14517;DHT22;7344;50.864;4.362;2023-06-24T03:39:04;17.00;95.10
14517;DHT22;7344;50.864;4.362;2023-06-24T03:41:29;17.00;96.60
14517;DHT22;7344;50.864;4.362;2023-06-24T03:43:55;17.00;94.30
14517;DHT22;7344;50.864;4.362;2023-06-24T03:46:21;17.10;93.10
14517;DHT22;7344;50.864;4.362;2023-06-24T03:48:47;17.30;92.30
14517;DHT22;7344;50.864;4.362;2023-06-24T03:51:12;17.60;81.70
14517;DHT22;7344;50.864;4.362;2023-06-24T03:53:38;17.80;66.20
14517;DHT22;7344;50.864;4.362;2023-06-24T03:56:04;18.20;55.00
14517;DHT22;7344;50.864;4.362;2023-06-24T03:58:30;18.80;44.90
14517;DHT22;7344;50.864;4.362;2023-06-24T04:00:58;19.10;24.00
14517;DHT22;7344;50.864;4.362;2023-06-24T04:03:24;19.60;18.10
14517;DHT22;7344;50.864;4.362;2023-06-24T04:05:55;20.30;4.40
14517;DHT22;7344;50.864;4.362;2023-06-24T04:08:21;20.70;1.00
14517;DHT22;7344;50.864;4.362;2023-06-24T04:10:47;20.90;1.00
14517;DHT22;7344;50.864;4.362;2023-06-24T04:13:12;21.30;1.00
14517;DHT22;7344;50.864;4.362;2023-06-24T04:15:38;21.80;1.00
14517;DHT22;7344;50.864;4.362;2023-06-24T04:18:04;22.30;1.00
14517;DHT22;7344;50.864;4.362;2023-06-24T04:20:29;22.80;1.00
14517;DHT22;7344;50.864;4.362;2023-06-24T04:22:55;23.00;1.00
14517;DHT22;7344;50.864;4.362;2023-06-24T04:25:21;23.20;1.00
14517;DHT22;7344;50.864;4.362;2023-06-24T04:27:46;23.60;1.00
14517;DHT22;7344;50.864;4.362;2023-06-24T04:30:12;24.10;1.00
14517;DHT22;7344;50.864;4.362;2023-06-24T04:32:38;24.60;1.00
14517;DHT22;7344;50.864;4.362;2023-06-24T04:35:03;24.70;1.00
14517;DHT22;7344;50.864;4.362;2023-06-24T04:37:32;25.00;1.00
14517;DHT22;7344;50.864;4.362;2023-06-24T04:39:58;25.60;99.90
14517;DHT22;7344;50.864;4.362;2023-06-24T04:42:24;25.60;99.90
14517;DHT22;7344;50.864;4.362;2023-06-24T04:44:50;25.90;99.90
14517;DHT22;7344;50.864;4.362;2023-06-24T04:47:19;25.90;1.00
14517;DHT22;7344;50.864;4.362;2023-06-24T04:49:44;25.70;99.90
14517;DHT22;7344;50.864;4.362;2023-06-24T04:52:13;26.30;1.00
14517;DHT22;7344;50.864;4.362;2023-06-24T04:54:39;27.10;99.90
14517;DHT22;7344;50.864;4.362;2023-06-24T04:57:08;27.90;99.90
14517;DHT22;7344;50.864;4.362;2023-06-24T04:59:34;28.10;1.00
14517;DHT22;7344;50.864;4.362;2023-06-24T05:01:59;28.10;97.80
14517;DHT22;7344;50.864;4.362;2023-06-24T05:04:25;28.50;99.90
14517;DHT22;7344;50.864;4.362;2023-06-24T05:06:51;28.50;31.90
14517;DHT22;7344;50.864;4.362;2023-06-24T05:09:17;28.90;99.90
14517;DHT22;7344;50.864;4.362;2023-06-24T05:11:42;29.60;1.00
14517;DHT22;7344;50.864;4.362;2023-06-24T05:14:08;30.00;99.90
14517;DHT22;7344;50.864;4.362;2023-06-24T05:16:34;30.50;70.40
14517;DHT22;7344;50.864;4.362;2023-06-24T05:19:00;31.20;1.00
14517;DHT22;7344;50.864;4.362;2023-06-24T05:21:25;30.70;1.00
14517;DHT22;7344;50.864;4.362;2023-06-24T05:23:51;30.90;1.00
14517;DHT22;7344;50.864;4.362;2023-06-24T05:26:16;31.10;1.00
14517;DHT22;7344;50.864;4.362;2023-06-24T05:28:42;31.50;1.00
14517;DHT22;7344;50.864;4.362;2023-06-24T05:31:08;30.90;1.00
14517;DHT22;7344;50.864;4.362;2023-06-24T05:33:33;32.10;1.00
14517;DHT22;7344;50.864;4.362;2023-06-24T05:35:59;32.90;99.90
14517;DHT22;7344;50.864;4.362;2023-06-24T05:38:24;31.60;1.00
14517;DHT22;7344;50.864;4.362;2023-06-24T05:40:50;32.70;99.90
14517;DHT22;7344;50.864;4.362;2023-06-24T05:43:16;32.50;99.90
14517;DHT22;7344;50.864;4.362;2023-06-24T05:45:41;32.70;99.90
14517;DHT22;7344;50.864;4.362;2023-06-24T05:48:07;33.20;99.90
14517;DHT22;7344;50.864;4.362;2023-06-24T05:50:32;32.90;99.90
14517;DHT22;7344;50.864;4.362;2023-06-24T05:52:58;32.90;99.90
14517;DHT22;7344;50.864;4.362;2023-06-24T05:55:24;32.80;99.90
14517;DHT22;7344;50.864;4.362;2023-06-24T05:57:49;33.70;99.90
14517;DHT22;7344;50.864;4.362;2023-06-24T06:00:16;33.80;99.90
14517;DHT22;7344;50.864;4.362;2023-06-24T06:02:42;34.70;99.90
14517;DHT22;7344;50.864;4.362;2023-06-24T06:05:08;35.10;99.90
14517;DHT22;7344;50.864;4.362;2023-06-24T06:07:34;35.50;99.90
14517;DHT22;7344;50.864;4.362;2023-06-24T06:10:00;35.10;99.90
14517;DHT22;7344;50.864;4.362;2023-06-24T06:12:26;34.40;99.90
14517;DHT22;7344;50.864;4.362;2023-06-24T06:14:51;34.40;99.90
14517;DHT22;7344;50.864;4.362;2023-06-24T06:17:17;35.00;99.90
14517;DHT22;7344;50.864;4.362;2023-06-24T06:19:42;35.10;99.90
14517;DHT22;7344;50.864;4.362;2023-06-24T06:22:12;35.60;99.90
14517;DHT22;7344;50.864;4.362;2023-06-24T06:24:37;35.60;99.90
14517;DHT22;7344;50.864;4.362;2023-06-24T06:27:03;35.50;99.90
14517;DHT22;7344;50.864;4.362;2023-06-24T06:29:29;34.10;99.90
14517;DHT22;7344;50.864;4.362;2023-06-24T06:31:54;34.40;99.90
14517;DHT22;7344;50.864;4.362;2023-06-24T06:34:22;34.60;99.90
14517;DHT22;7344;50.864;4.362;2023-06-24T06:36:48;35.40;99.90
14517;DHT22;7344;50.864;4.362;2023-06-24T06:39:13;35.30;99.90
14517;DHT22;7344;50.864;4.362;2023-06-24T06:41:39;34.60;99.90
14517;DHT22;7344;50.864;4.362;2023-06-24T06:44:04;35.10;99.90
14517;DHT22;7344;50.864;4.362;2023-06-24T06:46:30;36.40;99.90
14517;DHT22;7344;50.864;4.362;2023-06-24T06:48:56;36.70;99.90
14517;DHT22;7344;50.864;4.362;2023-06-24T06:51:21;37.40;99.90
14517;DHT22;7344;50.864;4.362;2023-06-24T06:53:49;36.20;98.60
14517;DHT22;7344;50.864;4.362;2023-06-24T06:56:33;35.80;99.90
14517;DHT22;7344;50.864;4.362;2023-06-24T06:58:59;36.10;99.90
14517;DHT22;7344;50.864;4.362;2023-06-24T07:01:24;37.00;99.90
14517;DHT22;7344;50.864;4.362;2023-06-24T07:03:50;37.80;99.90
14517;DHT22;7344;50.864;4.362;2023-06-24T07:06:18;37.00;90.00
14517;DHT22;7344;50.864;4.362;2023-06-24T07:08:44;36.20;91.80
14517;DHT22;7344;50.864;4.362;2023-06-24T07:11:10;36.10;96.50
14517;DHT22;7344;50.864;4.362;2023-06-24T07:13:35;36.60;96.90
14517;DHT22;7344;50.864;4.362;2023-06-24T07:16:01;37.80;98.10
14517;DHT22;7344;50.864;4.362;2023-06-24T07:18:27;36.90;84.20
14517;DHT22;7344;50.864;4.362;2023-06-24T07:20:56;37.80;87.10
14517;DHT22;7344;50.864;4.362;2023-06-24T07:23:21;36.90;74.60
14517;DHT22;7344;50.864;4.362;2023-06-24T07:25:47;37.10;73.90
14517;DHT22;7344;50.864;4.362;2023-06-24T07:28:13;37.60;68.50
14517;DHT22;7344;50.864;4.362;2023-06-24T07:30:40;37.60;54.80
14517;DHT22;7344;50.864;4.362;2023-06-24T07:33:07;37.20;55.00
14517;DHT22;7344;50.864;4.362;2023-06-24T07:35:32;36.60;58.20
14517;DHT22;7344;50.864;4.362;2023-06-24T07:37:59;36.40;57.70
14517;DHT22;7344;50.864;4.362;2023-06-24T07:40:25;36.40;75.00
14517;DHT22;7344;50.864;4.362;2023-06-24T07:42:50;37.10;77.10
14517;DHT22;7344;50.864;4.362;2023-06-24T07:45:16;37.00;59.90
14517;DHT22;7344;50.864;4.362;2023-06-24T07:47:41;38.30;58.20
14517;DHT22;7344;50.864;4.362;2023-06-24T07:50:07;38.20;42.90
14517;DHT22;7344;50.864;4.362;2023-06-24T07:52:36;38.50;30.00
14517;DHT22;7344;50.864;4.362;2023-06-24T07:55:02;38.00;26.00
14517;DHT22;7344;50.864;4.362;2023-06-24T07:57:29;37.90;20.90
14517;DHT22;7344;50.864;4.362;2023-06-24T07:59:54;37.60;17.20
14517;DHT22;7344;50.864;4.362;2023-06-24T08:02:20;37.40;18.40
14517;DHT22;7344;50.864;4.362;2023-06-24T08:04:46;36.80;19.20
14517;DHT22;7344;50.864;4.362;2023-06-24T08:07:12;36.70;22.10
14517;DHT22;7344;50.864;4.362;2023-06-24T08:09:37;36.40;25.80
14517;DHT22;7344;50.864;4.362;2023-06-24T08:12:03;35.80;29.50
14517;DHT22;7344;50.864;4.362;2023-06-24T08:14:29;36.20;37.40
14517;DHT22;7344;50.864;4.362;2023-06-24T08:16:56;36.70;48.90
14517;DHT22;7344;50.864;4.362;2023-06-24T08:19:21;37.00;47.20
14517;DHT22;7344;50.864;4.362;2023-06-24T08:21:47;35.60;36.60
14517;DHT22;7344;50.864;4.362;2023-06-24T08:24:12;35.90;46.80
14517;DHT22;7344;50.864;4.362;2023-06-24T08:26:38;35.90;50.90
14517;DHT22;7344;50.864;4.362;2023-06-24T08:29:04;36.10;51.40
14517;DHT22;7344;50.864;4.362;2023-06-24T08:31:29;36.60;51.40
14517;DHT22;7344;50.864;4.362;2023-06-24T08:33:56;37.60;49.90
14517;DHT22;7344;50.864;4.362;2023-06-24T08:36:26;38.10;42.20
14517;DHT22;7344;50.864;4.362;2023-06-24T08:38:52;38.40;27.50
14517;DHT22;7344;50.864;4.362;2023-06-24T08:41:18;38.30;12.00
14517;DHT22;7344;50.864;4.362;2023-06-24T08:43:44;38.00;9.40
14517;DHT22;7344;50.864;4.362;2023-06-24T08:46:10;38.40;9.80
14517;DHT22;7344;50.864;4.362;2023-06-24T08:48:39;37.20;3.80
14517;DHT22;7344;50.864;4.362;2023-06-24T08:51:08;37.70;2.20
14517;DHT22;7344;50.864;4.362;2023-06-24T08:53:36;38.30;1.00
14517;DHT22;7344;50.864;4.362;2023-06-24T08:56:03;37.70;1.00
14517;DHT22;7344;50.864;4.362;2023-06-24T08:58:29;37.40;1.00
14517;DHT22;7344;50.864;4.362;2023-06-24T09:00:55;37.50;1.00
14517;DHT22;7344;50.864;4.362;2023-06-24T09:03:22;38.00;1.00
14517;DHT22;7344;50.864;4.362;2023-06-24T09:05:48;38.00;1.00
14517;DHT22;7344;50.864;4.362;2023-06-24T09:08:14;38.50;1.00
14517;DHT22;7344;50.864;4.362;2023-06-24T09:10:41;38.20;1.00
14517;DHT22;7344;50.864;4.362;2023-06-24T09:13:07;37.90;1.00
14517;DHT22;7344;50.864;4.362;2023-06-24T09:15:37;37.70;1.00
14517;DHT22;7344;50.864;4.362;2023-06-24T09:18:03;37.00;6.40
14517;DHT22;7344;50.864;4.362;2023-06-24T09:20:30;36.80;1.00
14517;DHT22;7344;50.864;4.362;2023-06-24T09:23:01;35.00;1.00
14517;DHT22;7344;50.864;4.362;2023-06-24T09:25:27;34.70;1.00
14517;DHT22;7344;50.864;4.362;2023-06-24T09:27:53;35.20;1.00
14517;DHT22;7344;50.864;4.362;2023-06-24T09:30:22;35.40;1.00
14517;DHT22;7344;50.864;4.362;2023-06-24T09:32:49;34.60;1.00
14517;DHT22;7344;50.864;4.362;2023-06-24T09:35:18;34.80;1.00
14517;DHT22;7344;50.864;4.362;2023-06-24T09:37:49;36.20;1.00
14517;DHT22;7344;50.864;4.362;2023-06-24T09:40:15;35.70;1.00
14517;DHT22;7344;50.864;4.362;2023-06-24T09:42:55;36.40;1.00
14517;DHT22;7344;50.864;4.362;2023-06-24T09:45:28;36.40;1.00
14517;DHT22;7344;50.864;4.362;2023-06-24T09:47:55;36.30;1.00
14517;DHT22;7344;50.864;4.362;2023-06-24T09:50:21;36.70;1.00
14517;DHT22;7344;50.864;4.362;2023-06-24T09:52:48;36.30;1.00
14517;DHT22;7344;50.864;4.362;2023-06-24T09:55:16;35.60;1.00
14517;DHT22;7344;50.864;4.362;2023-06-24T09:57:46;35.50;1.00
14517;DHT22;7344;50.864;4.362;2023-06-24T10:00:18;36.00;1.00
14517;DHT22;7344;50.864;4.362;2023-06-24T10:02:44;35.90;1.00
14517;DHT22;7344;50.864;4.362;2023-06-24T10:05:11;35.90;1.00
14517;DHT22;7344;50.864;4.362;2023-06-24T10:07:39;34.40;1.00
14517;DHT22;7344;50.864;4.362;2023-06-24T10:10:06;33.70;1.00
14517;DHT22;7344;50.864;4.362;2023-06-24T10:12:32;33.70;1.00
14517;DHT22;7344;50.864;4.362;2023-06-24T10:14:59;33.80;4.80
14517;DHT22;7344;50.864;4.362;2023-06-24T10:17:25;34.20;6.50
14517;DHT22;7344;50.864;4.362;2023-06-24T10:19:52;35.30;5.80
14517;DHT22;7344;50.864;4.362;2023-06-24T10:22:22;35.20;4.90
14517;DHT22;7344;50.864;4.362;2023-06-24T10:24:50;35.30;4.20
14517;DHT22;7344;50.864;4.362;2023-06-24T10:27:18;35.60;1.30
14517;DHT22;7344;50.864;4.362;2023-06-24T10:29:51;35.10;1.00
14517;DHT22;7344;50.864;4.362;2023-06-24T10:32:21;35.50;1.00
14517;DHT22;7344;50.864;4.362;2023-06-24T10:34:53;36.10;1.00
14517;DHT22;7344;50.864;4.362;2023-06-24T10:37:21;34.80;1.00
14517;DHT22;7344;50.864;4.362;2023-06-24T10:39:53;34.90;1.80
14517;DHT22;7344;50.864;4.362;2023-06-24T10:47:50;33.80;17.40
14517;DHT22;7344;50.864;4.362;2023-06-24T10:50:21;34.30;18.80
14517;DHT22;7344;50.864;4.362;2023-06-24T10:52:50;34.20;23.50
14517;DHT22;7344;50.864;4.362;2023-06-24T10:55:22;34.70;28.90
14517;DHT22;7344;50.864;4.362;2023-06-24T10:57:48;34.90;25.10
14517;DHT22;7344;50.864;4.362;2023-06-24T11:00:14;34.20;16.10
14517;DHT22;7344;50.864;4.362;2023-06-24T11:02:40;34.00;24.30
14517;DHT22;7344;50.864;4.362;2023-06-24T11:05:06;33.90;34.90
14517;DHT22;7344;50.864;4.362;2023-06-24T11:07:37;34.30;31.90
14517;DHT22;7344;50.864;4.362;2023-06-24T11:12:34;34.70;22.70
14517;DHT22;7344;50.864;4.362;2023-06-24T11:15:02;35.10;34.50
14517;DHT22;7344;50.864;4.362;2023-06-24T11:17:28;35.30;32.70
14517;DHT22;7344;50.864;4.362;2023-06-24T11:19:55;34.50;20.40
14517;DHT22;7344;50.864;4.362;2023-06-24T11:22:21;34.10;24.10
14517;DHT22;7344;50.864;4.362;2023-06-24T11:24:47;34.40;43.70
14517;DHT22;7344;50.864;4.362;2023-06-24T11:27:13;33.90;27.70
14517;DHT22;7344;50.864;4.362;2023-06-24T11:29:39;32.70;26.10
14517;DHT22;7344;50.864;4.362;2023-06-24T11:32:08;32.60;59.40
14517;DHT22;7344;50.864;4.362;2023-06-24T11:34:34;32.50;97.60
14517;DHT22;7344;50.864;4.362;2023-06-24T11:37:12;32.70;99.90
14517;DHT22;7344;50.864;4.362;2023-06-24T11:39:38;32.20;99.90
14517;DHT22;7344;50.864;4.362;2023-06-24T11:42:06;31.80;99.90
14517;DHT22;7344;50.864;4.362;2023-06-24T11:44:33;32.20;99.90
14517;DHT22;7344;50.864;4.362;2023-06-24T11:47:06;31.70;99.90
14517;DHT22;7344;50.864;4.362;2023-06-24T11:49:32;31.90;99.90
14517;DHT22;7344;50.864;4.362;2023-06-24T11:51:57;32.60;99.90
14517;DHT22;7344;50.864;4.362;2023-06-24T11:54:23;33.00;99.90
14517;DHT22;7344;50.864;4.362;2023-06-24T11:56:52;32.60;99.90
14517;DHT22;7344;50.864;4.362;2023-06-24T11:59:23;32.20;99.90
14517;DHT22;7344;50.864;4.362;2023-06-24T12:04:19;31.70;99.90
14517;DHT22;7344;50.864;4.362;2023-06-24T12:06:45;30.80;99.90
14517;DHT22;7344;50.864;4.362;2023-06-24T12:09:11;30.60;99.90
14517;DHT22;7344;50.864;4.362;2023-06-24T12:11:37;29.90;99.90
14517;DHT22;7344;50.864;4.362;2023-06-24T12:14:03;29.80;99.90
14517;DHT22;7344;50.864;4.362;2023-06-24T12:16:29;29.40;1.00
14517;DHT22;7344;50.864;4.362;2023-06-24T12:18:55;29.70;1.00
14517;DHT22;7344;50.864;4.362;2023-06-24T12:21:21;29.50;1.00
14517;DHT22;7344;50.864;4.362;2023-06-24T12:23:46;29.40;1.00
14517;DHT22;7344;50.864;4.362;2023-06-24T12:26:13;29.20;1.00
14517;DHT22;7344;50.864;4.362;2023-06-24T12:28:39;28.80;1.00
14517;DHT22;7344;50.864;4.362;2023-06-24T12:31:04;28.70;1.00
14517;DHT22;7344;50.864;4.362;2023-06-24T12:33:30;28.40;1.00
14517;DHT22;7344;50.864;4.362;2023-06-24T12:35:56;28.20;1.00
14517;DHT22;7344;50.864;4.362;2023-06-24T12:38:21;28.40;1.00
14517;DHT22;7344;50.864;4.362;2023-06-24T12:40:47;28.70;1.00
14517;DHT22;7344;50.864;4.362;2023-06-24T12:43:13;28.70;1.00
14517;DHT22;7344;50.864;4.362;2023-06-24T12:45:42;28.70;1.00
14517;DHT22;7344;50.864;4.362;2023-06-24T12:48:12;28.80;1.00
14517;DHT22;7344;50.864;4.362;2023-06-24T12:50:38;29.10;1.00
14517;DHT22;7344;50.864;4.362;2023-06-24T12:53:04;28.90;1.00
14517;DHT22;7344;50.864;4.362;2023-06-24T12:55:30;29.10;1.00
14517;DHT22;7344;50.864;4.362;2023-06-24T12:57:57;29.30;1.00
14517;DHT22;7344;50.864;4.362;2023-06-24T13:00:24;29.40;99.90
14517;DHT22;7344;50.864;4.362;2023-06-24T13:02:50;29.40;99.90
14517;DHT22;7344;50.864;4.362;2023-06-24T13:05:16;29.70;1.00
14517;DHT22;7344;50.864;4.362;2023-06-24T13:07:42;29.40;99.90
14517;DHT22;7344;50.864;4.362;2023-06-24T13:10:09;29.40;1.00
14517;DHT22;7344;50.864;4.362;2023-06-24T13:12:35;29.50;1.00
14517;DHT22;7344;50.864;4.362;2023-06-24T13:15:02;29.40;1.00
14517;DHT22;7344;50.864;4.362;2023-06-24T13:17:29;29.50;1.00
14517;DHT22;7344;50.864;4.362;2023-06-24T13:19:55;29.50;99.90
14517;DHT22;7344;50.864;4.362;2023-06-24T13:22:21;29.50;99.90
14517;DHT22;7344;50.864;4.362;2023-06-24T13:24:47;29.30;99.90
14517;DHT22;7344;50.864;4.362;2023-06-24T13:27:13;29.00;1.00
14517;DHT22;7344;50.864;4.362;2023-06-24T13:29:38;29.00;1.00
14517;DHT22;7344;50.864;4.362;2023-06-24T13:32:04;29.00;1.00
14517;DHT22;7344;50.864;4.362;2023-06-24T13:34:30;29.10;1.00
14517;DHT22;7344;50.864;4.362;2023-06-24T13:36:56;29.30;1.00
14517;DHT22;7344;50.864;4.362;2023-06-24T13:39:21;29.40;99.90
14517;DHT22;7344;50.864;4.362;2023-06-24T13:41:50;29.30;1.00
14517;DHT22;7344;50.864;4.362;2023-06-24T13:44:18;29.30;99.90
14517;DHT22;7344;50.864;4.362;2023-06-24T13:46:43;29.10;99.90
14517;DHT22;7344;50.864;4.362;2023-06-24T13:49:10;28.80;99.90
14517;DHT22;7344;50.864;4.362;2023-06-24T13:51:36;28.40;1.00
14517;DHT22;7344;50.864;4.362;2023-06-24T13:54:02;28.10;1.00
14517;DHT22;7344;50.864;4.362;2023-06-24T13:56:27;27.90;1.00
14517;DHT22;7344;50.864;4.362;2023-06-24T13:58:54;27.90;1.00
14517;DHT22;7344;50.864;4.362;2023-06-24T14:01:21;28.30;1.00
14517;DHT22;7344;50.864;4.362;2023-06-24T14:03:49;28.50;1.00
14517;DHT22;7344;50.864;4.362;2023-06-24T14:06:17;28.40;1.00
14517;DHT22;7344;50.864;4.362;2023-06-24T14:08:43;28.30;1.00
14517;DHT22;7344;50.864;4.362;2023-06-24T14:11:09;28.60;1.00
14517;DHT22;7344;50.864;4.362;2023-06-24T14:13:35;28.90;1.00
14517;DHT22;7344;50.864;4.362;2023-06-24T14:16:02;29.00;1.00
14517;DHT22;7344;50.864;4.362;2023-06-24T14:18:28;28.40;1.00
14517;DHT22;7344;50.864;4.362;2023-06-24T14:20:57;28.40;1.00
14517;DHT22;7344;50.864;4.362;2023-06-24T14:23:23;28.20;99.90
14517;DHT22;7344;50.864;4.362;2023-06-24T14:25:51;28.30;1.00
14517;DHT22;7344;50.864;4.362;2023-06-24T14:28:16;28.50;1.00
14517;DHT22;7344;50.864;4.362;2023-06-24T14:30:42;28.60;1.00
14517;DHT22;7344;50.864;4.362;2023-06-24T14:33:08;28.50;1.00
14517;DHT22;7344;50.864;4.362;2023-06-24T14:35:34;28.40;1.00
14517;DHT22;7344;50.864;4.362;2023-06-24T14:37:59;28.50;1.00
14517;DHT22;7344;50.864;4.362;2023-06-24T14:40:25;28.60;1.00
14517;DHT22;7344;50.864;4.362;2023-06-24T14:42:50;28.70;1.00
14517;DHT22;7344;50.864;4.362;2023-06-24T14:45:16;28.90;1.00
14517;DHT22;7344;50.864;4.362;2023-06-24T14:47:41;29.00;1.00
14517;DHT22;7344;50.864;4.362;2023-06-24T14:50:07;29.10;1.00
14517;DHT22;7344;50.864;4.362;2023-06-24T14:52:33;29.10;1.00
14517;DHT22;7344;50.864;4.362;2023-06-24T14:54:58;29.10;1.00
14517;DHT22;7344;50.864;4.362;2023-06-24T14:57:24;29.20;1.00
14517;DHT22;7344;50.864;4.362;2023-06-24T14:59:51;29.10;99.90
14517;DHT22;7344;50.864;4.362;2023-06-24T15:02:16;28.70;1.00
14517;DHT22;7344;50.864;4.362;2023-06-24T15:04:43;28.70;1.00
14517;DHT22;7344;50.864;4.362;2023-06-24T15:07:08;28.70;1.00
14517;DHT22;7344;50.864;4.362;2023-06-24T15:09:34;29.00;1.00
14517;DHT22;7344;50.864;4.362;2023-06-24T15:12:01;29.00;1.00
14517;DHT22;7344;50.864;4.362;2023-06-24T15:14:27;29.10;1.00
14517;DHT22;7344;50.864;4.362;2023-06-24T15:16:52;29.10;1.00
14517;DHT22;7344;50.864;4.362;2023-06-24T15:19:19;29.10;1.00
14517;DHT22;7344;50.864;4.362;2023-06-24T15:21:45;29.10;1.00
14517;DHT22;7344;50.864;4.362;2023-06-24T15:24:10;29.10;1.00
14517;DHT22;7344;50.864;4.362;2023-06-24T15:26:36;28.90;1.00
14517;DHT22;7344;50.864;4.362;2023-06-24T15:29:02;28.90;1.00
14517;DHT22;7344;50.864;4.362;2023-06-24T15:31:28;28.80;1.00
14517;DHT22;7344;50.864;4.362;2023-06-24T15:33:53;28.80;1.00
14517;DHT22;7344;50.864;4.362;2023-06-24T15:36:20;28.80;1.00
14517;DHT22;7344;50.864;4.362;2023-06-24T15:38:47;28.80;1.00
14517;DHT22;7344;50.864;4.362;2023-06-24T15:41:13;28.90;1.00
14517;DHT22;7344;50.864;4.362;2023-06-24T15:43:40;28.70;1.00
14517;DHT22;7344;50.864;4.362;2023-06-24T15:46:05;28.80;1.00
14517;DHT22;7344;50.864;4.362;2023-06-24T15:48:31;29.00;1.00
14517;DHT22;7344;50.864;4.362;2023-06-24T15:50:57;28.90;1.00
14517;DHT22;7344;50.864;4.362;2023-06-24T15:53:25;28.50;1.00
14517;DHT22;7344;50.864;4.362;2023-06-24T15:55:50;28.20;1.00
14517;DHT22;7344;50.864;4.362;2023-06-24T15:58:16;28.30;1.00
14517;DHT22;7344;50.864;4.362;2023-06-24T16:00:42;28.50;1.00
14517;DHT22;7344;50.864;4.362;2023-06-24T16:03:08;28.60;1.00
14517;DHT22;7344;50.864;4.362;2023-06-24T16:05:33;28.60;1.00